sensor_id;sensor_type;location;lat;lon;timestamp;P1;durP1;ratioP1;P2;durP2;ratioP2
39190;SDS011;24916;51.676;6.614;2023-02-02T00:01:25;9.88;;;1.73;;
39190;SDS011;24916;51.676;6.614;2023-02-02T00:03:50;12.60;;;2.00;;
39190;SDS011;24916;51.676;6.614;2023-02-02T00:06:16;5.55;;;1.15;;
39190;SDS011;24916;51.676;6.614;2023-02-02T00:08:42;10.25;;;1.77;;
39190;SDS011;24916;51.676;6.614;2023-02-02T00:11:07;11.18;;;1.75;;
39190;SDS011;24916;51.676;6.614;2023-02-02T00:13:32;13.05;;;1.48;;
39190;SDS011;24916;51.676;6.614;2023-02-02T00:15:58;5.70;;;1.10;;
39190;SDS011;24916;51.676;6.614;2023-02-02T00:18:23;6.85;;;1.45;;
39190;SDS011;24916;51.676;6.614;2023-02-02T00:20:48;11.82;;;1.65;;
39190;SDS011;24916;51.676;6.614;2023-02-02T00:23:14;6.95;;;1.17;;
39190;SDS011;24916;51.676;6.614;2023-02-02T00:25:39;10.85;;;1.55;;
39190;SDS011;24916;51.676;6.614;2023-02-02T00:28:05;6.10;;;1.35;;
39190;SDS011;24916;51.676;6.614;2023-02-02T00:30:30;10.02;;;1.55;;
39190;SDS011;24916;51.676;6.614;2023-02-02T00:32:55;7.88;;;1.52;;
39190;SDS011;24916;51.676;6.614;2023-02-02T00:35:20;8.63;;;1.85;;
39190;SDS011;24916;51.676;6.614;2023-02-02T00:37:46;5.97;;;1.75;;
39190;SDS011;24916;51.676;6.614;2023-02-02T00:40:11;10.32;;;1.77;;
39190;SDS011;24916;51.676;6.614;2023-02-02T00:42:36;9.00;;;2.05;;
39190;SDS011;24916;51.676;6.614;2023-02-02T00:45:02;6.70;;;1.70;;
39190;SDS011;24916;51.676;6.614;2023-02-02T00:47:43;11.90;;;2.10;;
39190;SDS011;24916;51.676;6.614;2023-02-02T00:50:10;10.48;;;2.38;;
39190;SDS011;24916;51.676;6.614;2023-02-02T00:52:35;8.10;;;1.77;;
39190;SDS011;24916;51.676;6.614;2023-02-02T00:55:01;8.40;;;2.10;;
39190;SDS011;24916;51.676;6.614;2023-02-02T00:57:26;17.85;;;2.42;;
39190;SDS011;24916;51.676;6.614;2023-02-02T00:59:51;13.60;;;2.60;;
39190;SDS011;24916;51.676;6.614;2023-02-02T01:02:16;18.23;;;2.10;;
39190;SDS011;24916;51.676;6.614;2023-02-02T01:04:42;8.35;;;1.95;;
39190;SDS011;24916;51.676;6.614;2023-02-02T01:07:07;8.32;;;2.35;;
39190;SDS011;24916;51.676;6.614;2023-02-02T01:09:32;14.57;;;2.67;;
39190;SDS011;24916;51.676;6.614;2023-02-02T01:11:57;13.73;;;2.17;;
39190;SDS011;24916;51.676;6.614;2023-02-02T01:14:22;10.27;;;1.70;;
39190;SDS011;24916;51.676;6.614;2023-02-02T01:16:48;9.05;;;2.05;;
39190;SDS011;24916;51.676;6.614;2023-02-02T01:19:13;8.30;;;2.25;;
39190;SDS011;24916;51.676;6.614;2023-02-02T01:21:39;12.45;;;3.30;;
39190;SDS011;24916;51.676;6.614;2023-02-02T01:24:04;22.23;;;3.58;;
39190;SDS011;24916;51.676;6.614;2023-02-02T01:26:30;18.38;;;3.15;;
39190;SDS011;24916;51.676;6.614;2023-02-02T01:28:55;14.40;;;3.17;;
39190;SDS011;24916;51.676;6.614;2023-02-02T01:31:20;19.58;;;4.05;;
39190;SDS011;24916;51.676;6.614;2023-02-02T01:33:46;22.70;;;4.35;;
39190;SDS011;24916;51.676;6.614;2023-02-02T01:36:14;19.55;;;4.18;;
39190;SDS011;24916;51.676;6.614;2023-02-02T01:38:40;17.92;;;3.50;;
39190;SDS011;24916;51.676;6.614;2023-02-02T01:41:06;19.48;;;4.72;;
39190;SDS011;24916;51.676;6.614;2023-02-02T01:46:06;24.17;;;3.97;;
39190;SDS011;24916;51.676;6.614;2023-02-02T01:48:33;31.08;;;5.18;;
39190;SDS011;24916;51.676;6.614;2023-02-02T01:51:00;20.08;;;3.92;;
39190;SDS011;24916;51.676;6.614;2023-02-02T01:53:27;14.93;;;3.58;;
39190;SDS011;24916;51.676;6.614;2023-02-02T01:55:53;16.50;;;3.95;;
39190;SDS011;24916;51.676;6.614;2023-02-02T01:58:23;17.52;;;3.80;;
39190;SDS011;24916;51.676;6.614;2023-02-02T02:00:49;25.98;;;4.47;;
39190;SDS011;24916;51.676;6.614;2023-02-02T02:03:15;19.95;;;3.60;;
39190;SDS011;24916;51.676;6.614;2023-02-02T02:05:51;29.85;;;4.35;;
39190;SDS011;24916;51.676;6.614;2023-02-02T02:08:22;29.63;;;4.22;;
39190;SDS011;24916;51.676;6.614;2023-02-02T02:10:48;18.25;;;4.32;;
39190;SDS011;24916;51.676;6.614;2023-02-02T02:13:13;26.33;;;3.58;;
39190;SDS011;24916;51.676;6.614;2023-02-02T02:15:40;13.98;;;3.25;;
39190;SDS011;24916;51.676;6.614;2023-02-02T02:18:29;15.13;;;2.88;;
39190;SDS011;24916;51.676;6.614;2023-02-02T02:27:02;15.07;;;3.03;;
39190;SDS011;24916;51.676;6.614;2023-02-02T02:34:28;14.67;;;2.73;;
39190;SDS011;24916;51.676;6.614;2023-02-02T02:37:08;13.68;;;2.42;;
39190;SDS011;24916;51.676;6.614;2023-02-02T02:39:37;10.68;;;2.63;;
39190;SDS011;24916;51.676;6.614;2023-02-02T02:42:06;11.10;;;2.42;;
39190;SDS011;24916;51.676;6.614;2023-02-02T02:44:32;18.83;;;4.32;;
39190;SDS011;24916;51.676;6.614;2023-02-02T02:46:58;18.77;;;2.78;;
39190;SDS011;24916;51.676;6.614;2023-02-02T02:49:23;19.27;;;3.53;;
39190;SDS011;24916;51.676;6.614;2023-02-02T02:51:53;19.02;;;3.03;;
39190;SDS011;24916;51.676;6.614;2023-02-02T02:54:30;13.65;;;3.22;;
39190;SDS011;24916;51.676;6.614;2023-02-02T02:59:32;15.88;;;3.58;;
39190;SDS011;24916;51.676;6.614;2023-02-02T03:04:36;14.45;;;3.17;;
39190;SDS011;24916;51.676;6.614;2023-02-02T03:07:49;16.90;;;2.97;;
39190;SDS011;24916;51.676;6.614;2023-02-02T03:09:47;10.43;;;3.33;;
39190;SDS011;24916;51.676;6.614;2023-02-02T03:12:14;12.07;;;3.13;;
39190;SDS011;24916;51.676;6.614;2023-02-02T03:14:40;17.48;;;3.33;;
39190;SDS011;24916;51.676;6.614;2023-02-02T03:17:05;20.02;;;4.40;;
39190;SDS011;24916;51.676;6.614;2023-02-02T03:19:30;19.30;;;3.88;;
39190;SDS011;24916;51.676;6.614;2023-02-02T03:21:55;16.88;;;3.90;;
39190;SDS011;24916;51.676;6.614;2023-02-02T03:24:21;21.17;;;3.55;;
39190;SDS011;24916;51.676;6.614;2023-02-02T03:26:46;14.95;;;3.20;;
39190;SDS011;24916;51.676;6.614;2023-02-02T03:29:11;21.52;;;3.65;;
39190;SDS011;24916;51.676;6.614;2023-02-02T03:31:37;13.57;;;2.85;;
39190;SDS011;24916;51.676;6.614;2023-02-02T03:34:02;17.55;;;3.40;;
39190;SDS011;24916;51.676;6.614;2023-02-02T03:36:27;13.38;;;3.58;;
39190;SDS011;24916;51.676;6.614;2023-02-02T03:38:52;14.18;;;2.65;;
39190;SDS011;24916;51.676;6.614;2023-02-02T03:41:18;14.90;;;2.47;;
39190;SDS011;24916;51.676;6.614;2023-02-02T03:43:43;16.17;;;3.05;;
39190;SDS011;24916;51.676;6.614;2023-02-02T03:46:08;15.88;;;3.33;;
39190;SDS011;24916;51.676;6.614;2023-02-02T03:48:34;16.27;;;2.67;;
39190;SDS011;24916;51.676;6.614;2023-02-02T03:51:03;11.65;;;2.45;;
39190;SDS011;24916;51.676;6.614;2023-02-02T03:53:28;19.13;;;2.55;;
39190;SDS011;24916;51.676;6.614;2023-02-02T03:55:54;9.63;;;2.53;;
39190;SDS011;24916;51.676;6.614;2023-02-02T03:58:19;14.38;;;2.97;;
39190;SDS011;24916;51.676;6.614;2023-02-02T04:00:46;7.53;;;2.30;;
39190;SDS011;24916;51.676;6.614;2023-02-02T04:03:11;14.60;;;3.20;;
39190;SDS011;24916;51.676;6.614;2023-02-02T04:05:36;12.57;;;2.45;;
39190;SDS011;24916;51.676;6.614;2023-02-02T04:08:01;13.73;;;3.38;;
39190;SDS011;24916;51.676;6.614;2023-02-02T04:10:26;15.18;;;3.20;;
39190;SDS011;24916;51.676;6.614;2023-02-02T04:12:52;13.93;;;2.75;;
39190;SDS011;24916;51.676;6.614;2023-02-02T04:15:17;17.27;;;3.05;;
39190;SDS011;24916;51.676;6.614;2023-02-02T04:17:42;16.20;;;3.97;;
39190;SDS011;24916;51.676;6.614;2023-02-02T04:20:07;10.10;;;3.35;;
39190;SDS011;24916;51.676;6.614;2023-02-02T04:22:33;15.07;;;4.28;;
39190;SDS011;24916;51.676;6.614;2023-02-02T04:24:58;20.08;;;4.57;;
39190;SDS011;24916;51.676;6.614;2023-02-02T04:27:23;19.20;;;4.18;;
39190;SDS011;24916;51.676;6.614;2023-02-02T04:29:49;14.43;;;4.72;;
39190;SDS011;24916;51.676;6.614;2023-02-02T04:32:14;22.83;;;5.18;;
39190;SDS011;24916;51.676;6.614;2023-02-02T04:34:39;19.90;;;6.63;;
39190;SDS011;24916;51.676;6.614;2023-02-02T04:37:05;26.63;;;6.22;;
39190;SDS011;24916;51.676;6.614;2023-02-02T04:39:30;23.17;;;6.15;;
39190;SDS011;24916;51.676;6.614;2023-02-02T04:41:55;22.33;;;5.22;;
39190;SDS011;24916;51.676;6.614;2023-02-02T04:44:20;29.00;;;6.43;;
39190;SDS011;24916;51.676;6.614;2023-02-02T04:46:45;27.80;;;4.93;;
39190;SDS011;24916;51.676;6.614;2023-02-02T04:49:11;28.90;;;6.05;;
39190;SDS011;24916;51.676;6.614;2023-02-02T04:51:37;27.38;;;5.85;;
39190;SDS011;24916;51.676;6.614;2023-02-02T04:54:03;29.25;;;4.93;;
39190;SDS011;24916;51.676;6.614;2023-02-02T04:56:28;22.52;;;4.72;;
39190;SDS011;24916;51.676;6.614;2023-02-02T04:58:53;26.98;;;4.85;;
39190;SDS011;24916;51.676;6.614;2023-02-02T05:01:19;30.88;;;4.97;;
39190;SDS011;24916;51.676;6.614;2023-02-02T05:03:45;31.42;;;5.47;;
39190;SDS011;24916;51.676;6.614;2023-02-02T05:06:11;35.17;;;5.32;;
39190;SDS011;24916;51.676;6.614;2023-02-02T05:08:36;23.00;;;4.53;;
39190;SDS011;24916;51.676;6.614;2023-02-02T05:11:05;28.25;;;4.95;;
39190;SDS011;24916;51.676;6.614;2023-02-02T05:13:30;27.58;;;4.93;;
39190;SDS011;24916;51.676;6.614;2023-02-02T05:15:56;48.60;;;5.28;;
39190;SDS011;24916;51.676;6.614;2023-02-02T05:18:21;23.60;;;4.90;;
39190;SDS011;24916;51.676;6.614;2023-02-02T05:20:46;29.23;;;6.35;;
39190;SDS011;24916;51.676;6.614;2023-02-02T05:23:12;25.50;;;4.97;;
39190;SDS011;24916;51.676;6.614;2023-02-02T05:25:37;27.88;;;5.20;;
39190;SDS011;24916;51.676;6.614;2023-02-02T05:28:02;24.95;;;4.72;;
39190;SDS011;24916;51.676;6.614;2023-02-02T05:30:27;24.83;;;5.13;;
39190;SDS011;24916;51.676;6.614;2023-02-02T05:32:52;25.10;;;4.95;;
39190;SDS011;24916;51.676;6.614;2023-02-02T05:35:18;29.30;;;4.63;;
39190;SDS011;24916;51.676;6.614;2023-02-02T05:37:43;30.30;;;5.00;;
39190;SDS011;24916;51.676;6.614;2023-02-02T05:40:08;27.13;;;4.82;;
39190;SDS011;24916;51.676;6.614;2023-02-02T05:42:34;28.10;;;5.78;;
39190;SDS011;24916;51.676;6.614;2023-02-02T05:44:59;21.75;;;4.35;;
39190;SDS011;24916;51.676;6.614;2023-02-02T05:47:24;17.92;;;4.30;;
39190;SDS011;24916;51.676;6.614;2023-02-02T05:49:49;24.52;;;4.38;;
39190;SDS011;24916;51.676;6.614;2023-02-02T05:52:15;25.52;;;6.03;;
39190;SDS011;24916;51.676;6.614;2023-02-02T05:54:42;19.92;;;3.70;;
39190;SDS011;24916;51.676;6.614;2023-02-02T05:57:07;18.73;;;4.07;;
39190;SDS011;24916;51.676;6.614;2023-02-02T05:59:32;26.77;;;4.75;;
39190;SDS011;24916;51.676;6.614;2023-02-02T06:01:57;22.10;;;4.50;;
39190;SDS011;24916;51.676;6.614;2023-02-02T06:04:22;22.02;;;4.22;;
39190;SDS011;24916;51.676;6.614;2023-02-02T06:06:48;27.27;;;4.70;;
39190;SDS011;24916;51.676;6.614;2023-02-02T06:09:13;28.88;;;4.75;;
39190;SDS011;24916;51.676;6.614;2023-02-02T06:11:38;25.85;;;4.63;;
39190;SDS011;24916;51.676;6.614;2023-02-02T06:14:04;24.95;;;4.47;;
39190;SDS011;24916;51.676;6.614;2023-02-02T06:16:29;18.33;;;4.07;;
39190;SDS011;24916;51.676;6.614;2023-02-02T06:18:54;29.15;;;5.43;;
39190;SDS011;24916;51.676;6.614;2023-02-02T06:21:20;21.00;;;4.57;;
39190;SDS011;24916;51.676;6.614;2023-02-02T06:23:47;18.92;;;4.80;;
39190;SDS011;24916;51.676;6.614;2023-02-02T06:26:12;29.95;;;5.88;;
39190;SDS011;24916;51.676;6.614;2023-02-02T06:28:37;26.52;;;5.07;;
39190;SDS011;24916;51.676;6.614;2023-02-02T06:31:03;22.98;;;6.18;;
39190;SDS011;24916;51.676;6.614;2023-02-02T06:33:29;26.45;;;4.47;;
39190;SDS011;24916;51.676;6.614;2023-02-02T06:35:57;29.67;;;4.93;;
39190;SDS011;24916;51.676;6.614;2023-02-02T06:38:22;28.98;;;4.95;;
39190;SDS011;24916;51.676;6.614;2023-02-02T06:40:47;16.23;;;3.85;;
39190;SDS011;24916;51.676;6.614;2023-02-02T06:43:12;22.20;;;4.60;;
39190;SDS011;24916;51.676;6.614;2023-02-02T06:45:40;25.77;;;5.07;;
39190;SDS011;24916;51.676;6.614;2023-02-02T06:48:05;23.95;;;3.72;;
39190;SDS011;24916;51.676;6.614;2023-02-02T06:50:34;24.45;;;4.40;;
39190;SDS011;24916;51.676;6.614;2023-02-02T06:53:00;20.85;;;4.65;;
39190;SDS011;24916;51.676;6.614;2023-02-02T06:55:25;22.98;;;4.43;;
39190;SDS011;24916;51.676;6.614;2023-02-02T06:57:54;19.67;;;4.28;;
39190;SDS011;24916;51.676;6.614;2023-02-02T07:00:20;13.85;;;4.28;;
39190;SDS011;24916;51.676;6.614;2023-02-02T07:02:45;23.02;;;4.80;;
39190;SDS011;24916;51.676;6.614;2023-02-02T07:05:11;18.63;;;5.03;;
39190;SDS011;24916;51.676;6.614;2023-02-02T07:07:36;20.50;;;4.57;;
39190;SDS011;24916;51.676;6.614;2023-02-02T07:10:02;27.55;;;4.60;;
39190;SDS011;24916;51.676;6.614;2023-02-02T07:12:27;20.40;;;4.55;;
39190;SDS011;24916;51.676;6.614;2023-02-02T07:14:52;26.00;;;4.80;;
39190;SDS011;24916;51.676;6.614;2023-02-02T07:17:18;16.90;;;4.53;;
39190;SDS011;24916;51.676;6.614;2023-02-02T07:19:43;16.65;;;4.78;;
39190;SDS011;24916;51.676;6.614;2023-02-02T07:22:08;24.13;;;5.90;;
39190;SDS011;24916;51.676;6.614;2023-02-02T07:24:34;16.48;;;4.78;;
39190;SDS011;24916;51.676;6.614;2023-02-02T07:26:59;29.95;;;6.28;;
39190;SDS011;24916;51.676;6.614;2023-02-02T07:29:24;18.23;;;5.13;;
39190;SDS011;24916;51.676;6.614;2023-02-02T07:31:50;23.27;;;5.07;;
39190;SDS011;24916;51.676;6.614;2023-02-02T07:34:15;26.45;;;5.53;;
39190;SDS011;24916;51.676;6.614;2023-02-02T07:36:40;15.38;;;4.78;;
39190;SDS011;24916;51.676;6.614;2023-02-02T07:39:05;20.38;;;5.45;;
39190;SDS011;24916;51.676;6.614;2023-02-02T07:41:32;25.45;;;5.35;;
39190;SDS011;24916;51.676;6.614;2023-02-02T07:43:58;24.85;;;5.60;;
39190;SDS011;24916;51.676;6.614;2023-02-02T07:46:23;18.60;;;6.60;;
39190;SDS011;24916;51.676;6.614;2023-02-02T07:48:51;27.40;;;5.85;;
39190;SDS011;24916;51.676;6.614;2023-02-02T07:51:17;22.52;;;6.40;;
39190;SDS011;24916;51.676;6.614;2023-02-02T07:53:46;19.23;;;6.70;;
39190;SDS011;24916;51.676;6.614;2023-02-02T07:56:13;24.75;;;6.00;;
39190;SDS011;24916;51.676;6.614;2023-02-02T07:58:39;19.80;;;5.18;;
39190;SDS011;24916;51.676;6.614;2023-02-02T08:01:04;24.05;;;6.28;;
39190;SDS011;24916;51.676;6.614;2023-02-02T08:03:30;17.85;;;5.40;;
39190;SDS011;24916;51.676;6.614;2023-02-02T08:05:56;22.38;;;6.43;;
39190;SDS011;24916;51.676;6.614;2023-02-02T08:08:21;26.45;;;6.07;;
39190;SDS011;24916;51.676;6.614;2023-02-02T08:10:50;21.13;;;5.60;;
39190;SDS011;24916;51.676;6.614;2023-02-02T08:13:15;22.05;;;5.85;;
39190;SDS011;24916;51.676;6.614;2023-02-02T08:15:41;25.02;;;5.75;;
39190;SDS011;24916;51.676;6.614;2023-02-02T08:18:06;22.10;;;4.97;;
39190;SDS011;24916;51.676;6.614;2023-02-02T08:20:31;22.10;;;5.70;;
39190;SDS011;24916;51.676;6.614;2023-02-02T08:22:56;17.02;;;5.10;;
39190;SDS011;24916;51.676;6.614;2023-02-02T08:25:22;25.70;;;5.97;;
39190;SDS011;24916;51.676;6.614;2023-02-02T08:27:47;16.92;;;5.30;;
39190;SDS011;24916;51.676;6.614;2023-02-02T08:30:12;20.85;;;5.10;;
39190;SDS011;24916;51.676;6.614;2023-02-02T08:32:37;24.48;;;5.47;;
39190;SDS011;24916;51.676;6.614;2023-02-02T08:35:03;21.17;;;4.88;;
39190;SDS011;24916;51.676;6.614;2023-02-02T08:37:28;20.02;;;5.20;;
39190;SDS011;24916;51.676;6.614;2023-02-02T08:39:53;22.15;;;6.00;;
39190;SDS011;24916;51.676;6.614;2023-02-02T08:42:18;19.58;;;5.60;;
39190;SDS011;24916;51.676;6.614;2023-02-02T08:44:44;19.45;;;5.63;;
39190;SDS011;24916;51.676;6.614;2023-02-02T08:47:09;30.65;;;7.40;;
39190;SDS011;24916;51.676;6.614;2023-02-02T08:49:34;22.25;;;6.28;;
39190;SDS011;24916;51.676;6.614;2023-02-02T08:51:59;20.33;;;6.07;;
39190;SDS011;24916;51.676;6.614;2023-02-02T08:54:25;29.40;;;6.93;;
39190;SDS011;24916;51.676;6.614;2023-02-02T08:56:50;24.85;;;6.95;;
39190;SDS011;24916;51.676;6.614;2023-02-02T08:59:15;21.73;;;6.30;;
39190;SDS011;24916;51.676;6.614;2023-02-02T09:01:40;20.35;;;5.72;;
39190;SDS011;24916;51.676;6.614;2023-02-02T09:04:06;18.77;;;6.20;;
39190;SDS011;24916;51.676;6.614;2023-02-02T09:08:57;27.00;;;7.15;;
39190;SDS011;24916;51.676;6.614;2023-02-02T09:11:22;21.65;;;7.35;;
39190;SDS011;24916;51.676;6.614;2023-02-02T09:13:48;20.40;;;6.18;;
39190;SDS011;24916;51.676;6.614;2023-02-02T09:16:15;32.70;;;9.25;;
39190;SDS011;24916;51.676;6.614;2023-02-02T09:18:41;26.42;;;7.75;;
39190;SDS011;24916;51.676;6.614;2023-02-02T09:21:07;25.15;;;6.43;;
39190;SDS011;24916;51.676;6.614;2023-02-02T09:23:33;30.15;;;7.03;;
39190;SDS011;24916;51.676;6.614;2023-02-02T09:28:54;21.33;;;6.90;;
39190;SDS011;24916;51.676;6.614;2023-02-02T09:31:20;21.13;;;7.63;;
39190;SDS011;24916;51.676;6.614;2023-02-02T09:33:46;26.58;;;6.97;;
39190;SDS011;24916;51.676;6.614;2023-02-02T09:36:12;18.00;;;6.45;;
39190;SDS011;24916;51.676;6.614;2023-02-02T09:38:38;23.95;;;6.63;;
39190;SDS011;24916;51.676;6.614;2023-02-02T09:49:05;17.10;;;5.97;;
39190;SDS011;24916;51.676;6.614;2023-02-02T09:51:34;28.92;;;6.03;;
39190;SDS011;24916;51.676;6.614;2023-02-02T09:54:11;21.77;;;5.80;;
39190;SDS011;24916;51.676;6.614;2023-02-02T09:56:40;26.80;;;6.50;;
39190;SDS011;24916;51.676;6.614;2023-02-02T09:59:10;20.48;;;5.57;;
39190;SDS011;24916;51.676;6.614;2023-02-02T10:01:37;23.48;;;5.60;;
39190;SDS011;24916;51.676;6.614;2023-02-02T10:04:16;15.90;;;5.18;;
39190;SDS011;24916;51.676;6.614;2023-02-02T10:06:44;20.77;;;5.60;;
39190;SDS011;24916;51.676;6.614;2023-02-02T10:14:33;17.83;;;4.95;;
39190;SDS011;24916;51.676;6.614;2023-02-02T10:17:03;21.83;;;5.35;;
39190;SDS011;24916;51.676;6.614;2023-02-02T10:19:33;25.02;;;5.10;;
39190;SDS011;24916;51.676;6.614;2023-02-02T10:22:04;20.35;;;5.07;;
39190;SDS011;24916;51.676;6.614;2023-02-02T10:24:31;19.80;;;4.97;;
39190;SDS011;24916;51.676;6.614;2023-02-02T10:27:01;20.15;;;5.07;;
39190;SDS011;24916;51.676;6.614;2023-02-02T10:34:37;16.67;;;4.35;;
39190;SDS011;24916;51.676;6.614;2023-02-02T10:39:55;20.83;;;4.93;;
39190;SDS011;24916;51.676;6.614;2023-02-02T10:45:08;17.30;;;3.80;;
39190;SDS011;24916;51.676;6.614;2023-02-02T10:47:35;24.73;;;4.47;;
39190;SDS011;24916;51.676;6.614;2023-02-02T10:50:09;16.10;;;4.38;;
39190;SDS011;24916;51.676;6.614;2023-02-02T10:52:48;27.50;;;5.15;;
39190;SDS011;24916;51.676;6.614;2023-02-02T11:00:52;22.95;;;4.40;;
39190;SDS011;24916;51.676;6.614;2023-02-02T11:03:19;19.67;;;4.53;;
39190;SDS011;24916;51.676;6.614;2023-02-02T11:05:45;16.25;;;4.10;;
39190;SDS011;24916;51.676;6.614;2023-02-02T11:08:31;18.10;;;4.65;;
39190;SDS011;24916;51.676;6.614;2023-02-02T11:10:57;25.23;;;6.00;;
39190;SDS011;24916;51.676;6.614;2023-02-02T11:15:50;15.13;;;4.45;;
39190;SDS011;24916;51.676;6.614;2023-02-02T11:18:28;16.48;;;3.88;;
39190;SDS011;24916;51.676;6.614;2023-02-02T11:20:54;21.30;;;4.63;;
39190;SDS011;24916;51.676;6.614;2023-02-02T11:23:20;15.23;;;4.95;;
39190;SDS011;24916;51.676;6.614;2023-02-02T11:25:45;19.70;;;3.90;;
39190;SDS011;24916;51.676;6.614;2023-02-02T11:28:21;18.33;;;3.60;;
39190;SDS011;24916;51.676;6.614;2023-02-02T11:30:49;19.85;;;4.10;;
39190;SDS011;24916;51.676;6.614;2023-02-02T11:35:54;20.58;;;3.97;;
39190;SDS011;24916;51.676;6.614;2023-02-02T11:38:20;14.20;;;4.15;;
39190;SDS011;24916;51.676;6.614;2023-02-02T11:41:03;14.57;;;4.57;;
39190;SDS011;24916;51.676;6.614;2023-02-02T11:43:33;21.17;;;4.57;;
39190;SDS011;24916;51.676;6.614;2023-02-02T11:46:00;12.15;;;3.83;;
39190;SDS011;24916;51.676;6.614;2023-02-02T11:48:28;25.27;;;5.45;;
39190;SDS011;24916;51.676;6.614;2023-02-02T11:50:56;28.27;;;6.78;;
39190;SDS011;24916;51.676;6.614;2023-02-02T11:55:46;20.60;;;5.43;;
39190;SDS011;24916;51.676;6.614;2023-02-02T12:00:46;14.70;;;3.92;;
39190;SDS011;24916;51.676;6.614;2023-02-02T12:03:22;23.13;;;4.70;;
39190;SDS011;24916;51.676;6.614;2023-02-02T12:05:47;18.08;;;4.30;;
39190;SDS011;24916;51.676;6.614;2023-02-02T12:08:14;18.58;;;4.40;;
39190;SDS011;24916;51.676;6.614;2023-02-02T12:10:59;15.50;;;3.70;;
39190;SDS011;24916;51.676;6.614;2023-02-02T12:16:08;17.30;;;4.53;;
39190;SDS011;24916;51.676;6.614;2023-02-02T12:23:50;22.10;;;4.10;;
39190;SDS011;24916;51.676;6.614;2023-02-02T12:39:08;19.90;;;4.57;;
39190;SDS011;24916;51.676;6.614;2023-02-02T12:44:09;23.23;;;5.38;;
39190;SDS011;24916;51.676;6.614;2023-02-02T12:57:17;18.10;;;4.53;;
39190;SDS011;24916;51.676;6.614;2023-02-02T13:05:07;21.65;;;5.13;;
39190;SDS011;24916;51.676;6.614;2023-02-02T13:07:39;19.85;;;5.47;;
39190;SDS011;24916;51.676;6.614;2023-02-02T13:10:23;17.75;;;5.38;;
39190;SDS011;24916;51.676;6.614;2023-02-02T13:12:51;17.67;;;4.47;;
39190;SDS011;24916;51.676;6.614;2023-02-02T13:15:18;18.70;;;5.15;;
39190;SDS011;24916;51.676;6.614;2023-02-02T13:17:55;15.43;;;4.35;;
39190;SDS011;24916;51.676;6.614;2023-02-02T13:22:46;22.73;;;4.65;;
39190;SDS011;24916;51.676;6.614;2023-02-02T13:25:24;22.83;;;4.80;;
39190;SDS011;24916;51.676;6.614;2023-02-02T13:27:51;19.10;;;4.63;;
39190;SDS011;24916;51.676;6.614;2023-02-02T13:32:42;15.25;;;4.00;;
39190;SDS011;24916;51.676;6.614;2023-02-02T13:35:22;18.90;;;5.20;;
39190;SDS011;24916;51.676;6.614;2023-02-02T13:40:51;15.85;;;4.22;;
39190;SDS011;24916;51.676;6.614;2023-02-02T13:50:58;12.93;;;4.63;;
39190;SDS011;24916;51.676;6.614;2023-02-02T14:01:06;19.25;;;5.90;;
39190;SDS011;24916;51.676;6.614;2023-02-02T14:03:41;22.27;;;5.75;;
39190;SDS011;24916;51.676;6.614;2023-02-02T14:06:13;11.15;;;5.05;;
39190;SDS011;24916;51.676;6.614;2023-02-02T14:08:46;15.27;;;5.18;;
39190;SDS011;24916;51.676;6.614;2023-02-02T14:11:31;16.05;;;4.78;;
39190;SDS011;24916;51.676;6.614;2023-02-02T14:13:58;21.98;;;4.38;;
39190;SDS011;24916;51.676;6.614;2023-02-02T14:16:49;17.02;;;5.00;;
39190;SDS011;24916;51.676;6.614;2023-02-02T14:19:15;15.82;;;4.90;;
39190;SDS011;24916;51.676;6.614;2023-02-02T14:26:51;18.00;;;4.55;;
39190;SDS011;24916;51.676;6.614;2023-02-02T14:31:59;20.38;;;4.53;;
39190;SDS011;24916;51.676;6.614;2023-02-02T14:34:28;24.65;;;4.50;;
39190;SDS011;24916;51.676;6.614;2023-02-02T14:37:16;22.05;;;4.53;;
39190;SDS011;24916;51.676;6.614;2023-02-02T14:42:18;14.93;;;3.90;;
39190;SDS011;24916;51.676;6.614;2023-02-02T14:50:13;16.83;;;4.13;;
39190;SDS011;24916;51.676;6.614;2023-02-02T14:52:39;16.90;;;3.90;;
39190;SDS011;24916;51.676;6.614;2023-02-02T14:55:05;22.65;;;4.57;;
39190;SDS011;24916;51.676;6.614;2023-02-02T14:57:40;15.82;;;5.25;;
39190;SDS011;24916;51.676;6.614;2023-02-02T15:00:18;14.88;;;5.00;;
39190;SDS011;24916;51.676;6.614;2023-02-02T15:02:44;16.77;;;5.15;;
39190;SDS011;24916;51.676;6.614;2023-02-02T15:08:20;13.65;;;5.13;;
39190;SDS011;24916;51.676;6.614;2023-02-02T15:13:12;25.90;;;5.13;;
39190;SDS011;24916;51.676;6.614;2023-02-02T15:15:39;11.93;;;3.95;;
39190;SDS011;24916;51.676;6.614;2023-02-02T15:18:27;16.70;;;4.07;;
39190;SDS011;24916;51.676;6.614;2023-02-02T15:20:55;16.33;;;4.10;;
39190;SDS011;24916;51.676;6.614;2023-02-02T15:23:41;16.88;;;4.85;;
39190;SDS011;24916;51.676;6.614;2023-02-02T15:26:12;18.77;;;4.50;;
39190;SDS011;24916;51.676;6.614;2023-02-02T15:33:45;21.45;;;5.10;;
39190;SDS011;24916;51.676;6.614;2023-02-02T15:36:24;16.40;;;4.65;;
39190;SDS011;24916;51.676;6.614;2023-02-02T15:38:51;22.55;;;6.10;;
39190;SDS011;24916;51.676;6.614;2023-02-02T15:41:22;18.20;;;5.45;;
39190;SDS011;24916;51.676;6.614;2023-02-02T15:43:48;16.08;;;5.72;;
39190;SDS011;24916;51.676;6.614;2023-02-02T15:46:15;14.93;;;5.60;;
39190;SDS011;24916;51.676;6.614;2023-02-02T15:49:09;22.55;;;5.65;;
39190;SDS011;24916;51.676;6.614;2023-02-02T15:51:33;16.45;;;5.50;;
39190;SDS011;24916;51.676;6.614;2023-02-02T15:53:58;16.02;;;5.95;;
39190;SDS011;24916;51.676;6.614;2023-02-02T15:58:49;13.97;;;5.70;;
39190;SDS011;24916;51.676;6.614;2023-02-02T16:01:16;18.70;;;6.70;;
39190;SDS011;24916;51.676;6.614;2023-02-02T16:03:44;14.80;;;5.45;;
39190;SDS011;24916;51.676;6.614;2023-02-02T16:06:12;11.63;;;6.30;;
39190;SDS011;24916;51.676;6.614;2023-02-02T16:08:38;17.27;;;6.18;;
39190;SDS011;24916;51.676;6.614;2023-02-02T16:11:11;13.88;;;5.63;;
39190;SDS011;24916;51.676;6.614;2023-02-02T16:13:37;18.88;;;6.03;;
39190;SDS011;24916;51.676;6.614;2023-02-02T16:16:05;12.32;;;5.90;;
39190;SDS011;24916;51.676;6.614;2023-02-02T16:18:32;17.10;;;6.35;;
39190;SDS011;24916;51.676;6.614;2023-02-02T16:20:58;14.55;;;6.38;;
39190;SDS011;24916;51.676;6.614;2023-02-02T16:23:26;14.50;;;6.13;;
39190;SDS011;24916;51.676;6.614;2023-02-02T16:25:53;12.70;;;5.80;;
39190;SDS011;24916;51.676;6.614;2023-02-02T16:28:19;11.27;;;5.55;;
39190;SDS011;24916;51.676;6.614;2023-02-02T16:30:45;13.95;;;5.95;;
39190;SDS011;24916;51.676;6.614;2023-02-02T16:33:28;12.18;;;6.22;;
39190;SDS011;24916;51.676;6.614;2023-02-02T16:35:54;16.80;;;6.43;;
39190;SDS011;24916;51.676;6.614;2023-02-02T16:40:48;8.60;;;5.88;;
39190;SDS011;24916;51.676;6.614;2023-02-02T16:45:44;14.55;;;6.55;;
39190;SDS011;24916;51.676;6.614;2023-02-02T16:50:44;11.38;;;6.22;;
39190;SDS011;24916;51.676;6.614;2023-02-02T16:53:19;12.00;;;5.97;;
39190;SDS011;24916;51.676;6.614;2023-02-02T16:55:44;12.55;;;6.22;;
39190;SDS011;24916;51.676;6.614;2023-02-02T16:58:14;12.10;;;7.80;;
39190;SDS011;24916;51.676;6.614;2023-02-02T17:00:55;14.68;;;7.22;;
39190;SDS011;24916;51.676;6.614;2023-02-02T17:03:21;14.05;;;6.60;;
39190;SDS011;24916;51.676;6.614;2023-02-02T17:05:48;11.50;;;7.68;;
39190;SDS011;24916;51.676;6.614;2023-02-02T17:08:18;10.65;;;7.03;;
39190;SDS011;24916;51.676;6.614;2023-02-02T17:10:49;15.27;;;8.05;;
39190;SDS011;24916;51.676;6.614;2023-02-02T17:15:50;13.25;;;8.50;;
39190;SDS011;24916;51.676;6.614;2023-02-02T17:18:15;12.60;;;7.50;;
39190;SDS011;24916;51.676;6.614;2023-02-02T17:20:41;9.15;;;7.78;;
39190;SDS011;24916;51.676;6.614;2023-02-02T17:23:06;12.23;;;8.07;;